sensor_id;sensor_type;location;lat;lon;timestamp;pressure;altitude;pressure_sealevel;temperature;humidity
8398;BME280;4236;54.504;9.588;2023-02-14T00:00:00;103721.75;;;5.59;100.00
8398;BME280;4236;54.504;9.588;2023-02-14T00:02:27;103725.94;;;5.64;100.00
8398;BME280;4236;54.504;9.588;2023-02-14T00:04:57;103718.56;;;5.69;100.00
8398;BME280;4236;54.504;9.588;2023-02-14T00:07:24;103713.19;;;5.70;100.00
8398;BME280;4236;54.504;9.588;2023-02-14T00:09:52;103712.13;;;5.73;100.00
8398;BME280;4236;54.504;9.588;2023-02-14T00:12:20;103712.03;;;5.74;100.00
8398;BME280;4236;54.504;9.588;2023-02-14T00:14:47;103729.53;;;5.77;100.00
8398;BME280;4236;54.504;9.588;2023-02-14T00:17:33;103712.69;;;5.78;100.00
8398;BME280;4236;54.504;9.588;2023-02-14T00:20:02;103725.00;;;5.79;100.00
8398;BME280;4236;54.504;9.588;2023-02-14T00:22:30;103720.56;;;5.79;100.00
8398;BME280;4236;54.504;9.588;2023-02-14T00:24:58;103722.38;;;5.79;100.00
8398;BME280;4236;54.504;9.588;2023-02-14T00:27:25;103725.88;;;5.79;100.00
8398;BME280;4236;54.504;9.588;2023-02-14T00:29:53;103717.06;;;5.79;100.00
8398;BME280;4236;54.504;9.588;2023-02-14T00:32:23;103723.22;;;5.79;100.00
8398;BME280;4236;54.504;9.588;2023-02-14T00:34:51;103721.50;;;5.78;100.00
8398;BME280;4236;54.504;9.588;2023-02-14T00:37:20;103718.84;;;5.78;100.00
8398;BME280;4236;54.504;9.588;2023-02-14T00:39:48;103712.69;;;5.78;100.00
8398;BME280;4236;54.504;9.588;2023-02-14T00:42:15;103709.19;;;5.77;100.00
8398;BME280;4236;54.504;9.588;2023-02-14T00:44:43;103717.31;;;5.74;100.00
8398;BME280;4236;54.504;9.588;2023-02-14T00:47:11;103715.72;;;5.72;100.00
8398;BME280;4236;54.504;9.588;2023-02-14T00:49:39;103709.56;;;5.71;100.00
8398;BME280;4236;54.504;9.588;2023-02-14T00:52:06;103703.78;;;5.65;100.00
8398;BME280;4236;54.504;9.588;2023-02-14T00:54:35;103707.28;;;5.65;100.00
8398;BME280;4236;54.504;9.588;2023-02-14T00:57:03;103707.09;;;5.68;100.00
8398;BME280;4236;54.504;9.588;2023-02-14T00:59:30;103706.91;;;5.71;100.00
8398;BME280;4236;54.504;9.588;2023-02-14T01:01:58;103709.88;;;5.67;100.00
8398;BME280;4236;54.504;9.588;2023-02-14T01:04:26;103709.88;;;5.67;100.00
8398;BME280;4236;54.504;9.588;2023-02-14T01:06:54;103704.38;;;5.70;100.00
8398;BME280;4236;54.504;9.588;2023-02-14T01:09:21;103711.28;;;5.72;100.00
8398;BME280;4236;54.504;9.588;2023-02-14T01:11:50;103711.19;;;5.74;100.00
8398;BME280;4236;54.504;9.588;2023-02-14T01:14:18;103710.25;;;5.75;100.00
8398;BME280;4236;54.504;9.588;2023-02-14T01:16:45;103703.16;;;5.75;100.00
8398;BME280;4236;54.504;9.588;2023-02-14T01:19:13;103697.84;;;5.75;100.00
8398;BME280;4236;54.504;9.588;2023-02-14T01:21:41;103694.47;;;5.73;100.00
8398;BME280;4236;54.504;9.588;2023-02-14T01:24:09;103698.78;;;5.74;100.00
8398;BME280;4236;54.504;9.588;2023-02-14T01:26:38;103690.00;;;5.74;100.00
8398;BME280;4236;54.504;9.588;2023-02-14T01:29:07;103687.53;;;5.71;100.00
8398;BME280;4236;54.504;9.588;2023-02-14T01:31:35;103687.53;;;5.71;100.00
8398;BME280;4236;54.504;9.588;2023-02-14T01:34:03;103685.75;;;5.71;100.00
8398;BME280;4236;54.504;9.588;2023-02-14T01:36:32;103680.44;;;5.71;100.00
8398;BME280;4236;54.504;9.588;2023-02-14T01:39:03;103674.22;;;5.72;100.00
8398;BME280;4236;54.504;9.588;2023-02-14T01:41:33;103674.22;;;5.72;100.00
8398;BME280;4236;54.504;9.588;2023-02-14T01:44:02;103670.72;;;5.72;100.00
8398;BME280;4236;54.504;9.588;2023-02-14T01:46:34;103671.75;;;5.69;100.00
8398;BME280;4236;54.504;9.588;2023-02-14T01:49:06;103675.16;;;5.71;100.00
8398;BME280;4236;54.504;9.588;2023-02-14T01:51:37;103667.31;;;5.70;100.00
8398;BME280;4236;54.504;9.588;2023-02-14T01:54:08;103679.69;;;5.69;100.00
8398;BME280;4236;54.504;9.588;2023-02-14T01:56:39;103676.19;;;5.69;100.00
8398;BME280;4236;54.504;9.588;2023-02-14T01:59:10;103674.47;;;5.68;100.00
8398;BME280;4236;54.504;9.588;2023-02-14T02:01:41;103665.78;;;5.66;100.00
8398;BME280;4236;54.504;9.588;2023-02-14T02:04:11;103668.53;;;5.64;100.00
8398;BME280;4236;54.504;9.588;2023-02-14T02:06:43;103672.13;;;5.63;100.00
8398;BME280;4236;54.504;9.588;2023-02-14T02:09:17;103667.88;;;5.61;100.00
8398;BME280;4236;54.504;9.588;2023-02-14T02:11:46;103667.94;;;5.59;100.00
8398;BME280;4236;54.504;9.588;2023-02-14T02:14:16;103673.34;;;5.57;100.00
8398;BME280;4236;54.504;9.588;2023-02-14T02:17:02;103664.63;;;5.55;100.00
8398;BME280;4236;54.504;9.588;2023-02-14T02:20:02;103668.13;;;5.56;100.00
8398;BME280;4236;54.504;9.588;2023-02-14T02:22:46;103667.38;;;5.54;100.00
8398;BME280;4236;54.504;9.588;2023-02-14T02:25:34;103660.00;;;5.45;100.00
8398;BME280;4236;54.504;9.588;2023-02-14T02:28:30;103664.63;;;5.41;100.00
8398;BME280;4236;54.504;9.588;2023-02-14T02:31:13;103658.66;;;5.38;100.00
8398;BME280;4236;54.504;9.588;2023-02-14T02:34:25;103666.78;;;5.35;100.00
8398;BME280;4236;54.504;9.588;2023-02-14T02:37:14;103657.91;;;5.36;100.00
8398;BME280;4236;54.504;9.588;2023-02-14T02:40:01;103650.91;;;5.35;100.00
8398;BME280;4236;54.504;9.588;2023-02-14T02:42:35;103660.66;;;5.34;100.00
8398;BME280;4236;54.504;9.588;2023-02-14T02:45:12;103659.03;;;5.32;100.00
8398;BME280;4236;54.504;9.588;2023-02-14T02:47:52;103650.06;;;5.34;100.00
8398;BME280;4236;54.504;9.588;2023-02-14T02:50:26;103650.91;;;5.35;100.00
8398;BME280;4236;54.504;9.588;2023-02-14T02:53:20;103648.25;;;5.35;100.00
8398;BME280;4236;54.504;9.588;2023-02-14T02:55:52;103641.28;;;5.34;100.00
8398;BME280;4236;54.504;9.588;2023-02-14T02:58:47;103644.78;;;5.34;100.00
8398;BME280;4236;54.504;9.588;2023-02-14T03:01:20;103636.91;;;5.33;100.00
8398;BME280;4236;54.504;9.588;2023-02-14T03:03:52;103637.59;;;5.36;100.00
8398;BME280;4236;54.504;9.588;2023-02-14T03:06:35;103629.84;;;5.33;100.00
8398;BME280;4236;54.504;9.588;2023-02-14T03:09:49;103634.19;;;5.34;100.00
8398;BME280;4236;54.504;9.588;2023-02-14T03:12:34;103632.38;;;5.35;100.00
8398;BME280;4236;54.504;9.588;2023-02-14T03:15:10;103632.31;;;5.36;100.00
8398;BME280;4236;54.504;9.588;2023-02-14T03:17:52;103631.56;;;5.34;100.00
8398;BME280;4236;54.504;9.588;2023-02-14T03:20:30;103636.00;;;5.34;100.00
8398;BME280;4236;54.504;9.588;2023-02-14T03:23:04;103626.16;;;5.36;100.00
8398;BME280;4236;54.504;9.588;2023-02-14T03:25:41;103632.31;;;5.36;100.00
8398;BME280;4236;54.504;9.588;2023-02-14T03:28:14;103631.44;;;5.36;100.00
8398;BME280;4236;54.504;9.588;2023-02-14T03:30:47;103628.13;;;5.32;100.00
8398;BME280;4236;54.504;9.588;2023-02-14T03:33:23;103627.28;;;5.32;100.00
8398;BME280;4236;54.504;9.588;2023-02-14T03:35:58;103629.91;;;5.32;100.00
8398;BME280;4236;54.504;9.588;2023-02-14T03:38:32;103627.38;;;5.30;100.00
8398;BME280;4236;54.504;9.588;2023-02-14T03:41:04;103630.28;;;5.26;100.00
8398;BME280;4236;54.504;9.588;2023-02-14T03:43:38;103632.94;;;5.26;100.00
8398;BME280;4236;54.504;9.588;2023-02-14T03:46:09;103629.34;;;5.27;100.00
8398;BME280;4236;54.504;9.588;2023-02-14T03:48:40;103619.63;;;5.27;100.00
8398;BME280;4236;54.504;9.588;2023-02-14T03:51:11;103626.69;;;5.27;100.00
8398;BME280;4236;54.504;9.588;2023-02-14T03:53:45;103630.47;;;5.23;100.00
8398;BME280;4236;54.504;9.588;2023-02-14T03:56:17;103621.78;;;5.21;100.00
8398;BME280;4236;54.504;9.588;2023-02-14T03:58:50;103626.22;;;5.20;100.00
8398;BME280;4236;54.504;9.588;2023-02-14T04:01:22;103627.25;;;5.18;100.00
8398;BME280;4236;54.504;9.588;2023-02-14T04:03:52;103623.69;;;5.19;100.00
8398;BME280;4236;54.504;9.588;2023-02-14T04:06:22;103636.16;;;5.17;100.00
8398;BME280;4236;54.504;9.588;2023-02-14T04:08:51;103633.41;;;5.18;100.00
8398;BME280;4236;54.504;9.588;2023-02-14T04:11:20;103632.72;;;5.15;100.00
8398;BME280;4236;54.504;9.588;2023-02-14T04:13:50;103625.81;;;5.12;100.00
8398;BME280;4236;54.504;9.588;2023-02-14T04:16:17;103623.47;;;5.08;100.00
8398;BME280;4236;54.504;9.588;2023-02-14T04:18:45;103628.75;;;5.08;100.00
8398;BME280;4236;54.504;9.588;2023-02-14T04:21:27;103629.88;;;5.03;100.00
8398;BME280;4236;54.504;9.588;2023-02-14T04:23:54;103624.59;;;5.03;100.00
8398;BME280;4236;54.504;9.588;2023-02-14T04:26:24;103628.94;;;5.05;100.00
8398;BME280;4236;54.504;9.588;2023-02-14T04:28:51;103628.28;;;5.01;100.00
8398;BME280;4236;54.504;9.588;2023-02-14T04:31:19;103619.53;;;4.99;100.00
8398;BME280;4236;54.504;9.588;2023-02-14T04:33:47;103624.09;;;4.97;100.00
8398;BME280;4236;54.504;9.588;2023-02-14T04:36:16;103614.81;;;4.90;100.00
8398;BME280;4236;54.504;9.588;2023-02-14T04:38:44;103621.91;;;4.89;100.00
8398;BME280;4236;54.504;9.588;2023-02-14T04:41:11;103621.06;;;4.89;100.00
8398;BME280;4236;54.504;9.588;2023-02-14T04:43:40;103620.25;;;4.87;100.00
8398;BME280;4236;54.504;9.588;2023-02-14T04:46:08;103623.88;;;4.86;100.00
8398;BME280;4236;54.504;9.588;2023-02-14T04:48:36;103613.31;;;4.86;100.00
8398;BME280;4236;54.504;9.588;2023-02-14T04:51:04;103616.81;;;4.86;100.00
8398;BME280;4236;54.504;9.588;2023-02-14T04:53:32;103612.34;;;4.87;100.00
8398;BME280;4236;54.504;9.588;2023-02-14T04:56:06;103605.25;;;4.87;100.00
8398;BME280;4236;54.504;9.588;2023-02-14T04:58:34;103608.00;;;4.86;100.00
8398;BME280;4236;54.504;9.588;2023-02-14T05:01:03;103609.78;;;4.85;100.00
8398;BME280;4236;54.504;9.588;2023-02-14T05:03:31;103599.28;;;4.84;100.00
8398;BME280;4236;54.504;9.588;2023-02-14T05:05:58;103595.81;;;4.83;100.00
8398;BME280;4236;54.504;9.588;2023-02-14T05:08:26;103592.31;;;4.83;100.00
8398;BME280;4236;54.504;9.588;2023-02-14T05:10:53;103589.56;;;4.84;100.00
8398;BME280;4236;54.504;9.588;2023-02-14T05:13:21;103592.22;;;4.84;100.00
8398;BME280;4236;54.504;9.588;2023-02-14T05:15:49;103592.03;;;4.87;100.00
8398;BME280;4236;54.504;9.588;2023-02-14T05:18:18;103593.81;;;4.87;100.00
8398;BME280;4236;54.504;9.588;2023-02-14T05:20:48;103587.91;;;4.83;100.00
8398;BME280;4236;54.504;9.588;2023-02-14T05:23:15;103586.00;;;4.85;100.00
8398;BME280;4236;54.504;9.588;2023-02-14T05:25:43;103582.50;;;4.85;100.00
8398;BME280;4236;54.504;9.588;2023-02-14T05:28:11;103585.31;;;4.82;100.00
8398;BME280;4236;54.504;9.588;2023-02-14T05:30:39;103583.63;;;4.81;100.00
8398;BME280;4236;54.504;9.588;2023-02-14T05:33:07;103587.22;;;4.80;100.00
8398;BME280;4236;54.504;9.588;2023-02-14T05:35:36;103584.66;;;4.78;100.00
8398;BME280;4236;54.504;9.588;2023-02-14T05:38:04;103588.16;;;4.79;100.00
8398;BME280;4236;54.504;9.588;2023-02-14T05:40:32;103591.75;;;4.78;100.00
8398;BME280;4236;54.504;9.588;2023-02-14T05:43:00;103589.00;;;4.79;100.00
8398;BME280;4236;54.504;9.588;2023-02-14T05:45:27;103582.78;;;4.80;100.00
8398;BME280;4236;54.504;9.588;2023-02-14T05:47:55;103591.47;;;4.82;100.00
8398;BME280;4236;54.504;9.588;2023-02-14T05:50:23;103591.47;;;4.82;100.00
8398;BME280;4236;54.504;9.588;2023-02-14T05:52:52;103588.81;;;4.82;100.00
8398;BME280;4236;54.504;9.588;2023-02-14T05:55:19;103598.47;;;4.83;100.00
8398;BME280;4236;54.504;9.588;2023-02-14T05:57:47;103596.00;;;4.80;100.00
8398;BME280;4236;54.504;9.588;2023-02-14T06:00:15;103598.72;;;4.79;100.00
8398;BME280;4236;54.504;9.588;2023-02-14T06:02:44;103598.66;;;4.80;100.00
8398;BME280;4236;54.504;9.588;2023-02-14T06:05:12;103598.53;;;4.82;100.00
8398;BME280;4236;54.504;9.588;2023-02-14T06:07:40;103593.34;;;4.80;100.00
8398;BME280;4236;54.504;9.588;2023-02-14T06:10:10;103599.69;;;4.78;100.00
8398;BME280;4236;54.504;9.588;2023-02-14T06:12:38;103603.09;;;4.80;100.00
8398;BME280;4236;54.504;9.588;2023-02-14T06:15:06;103599.41;;;4.82;100.00
8398;BME280;4236;54.504;9.588;2023-02-14T06:17:34;103607.34;;;4.82;100.00
8398;BME280;4236;54.504;9.588;2023-02-14T06:20:01;103609.13;;;4.82;100.00
8398;BME280;4236;54.504;9.588;2023-02-14T06:22:29;103610.91;;;4.81;100.00
8398;BME280;4236;54.504;9.588;2023-02-14T06:24:57;103615.34;;;4.81;100.00
8398;BME280;4236;54.504;9.588;2023-02-14T06:27:27;103615.16;;;4.84;100.00
8398;BME280;4236;54.504;9.588;2023-02-14T06:29:55;103611.59;;;4.85;100.00
8398;BME280;4236;54.504;9.588;2023-02-14T06:32:23;103609.88;;;4.84;100.00
8398;BME280;4236;54.504;9.588;2023-02-14T06:34:50;103611.50;;;4.86;100.00
8398;BME280;4236;54.504;9.588;2023-02-14T06:37:18;103609.78;;;4.85;100.00
8398;BME280;4236;54.504;9.588;2023-02-14T06:39:46;103610.91;;;4.81;100.00
8398;BME280;4236;54.504;9.588;2023-02-14T06:42:14;103615.25;;;4.82;100.00
8398;BME280;4236;54.504;9.588;2023-02-14T06:44:43;103608.44;;;4.78;100.00
8398;BME280;4236;54.504;9.588;2023-02-14T06:47:10;103599.75;;;4.76;100.00
8398;BME280;4236;54.504;9.588;2023-02-14T06:49:38;103604.97;;;4.78;100.00
8398;BME280;4236;54.504;9.588;2023-02-14T06:52:06;103607.50;;;4.79;100.00
8398;BME280;4236;54.504;9.588;2023-02-14T06:54:33;103606.59;;;4.80;100.00
8398;BME280;4236;54.504;9.588;2023-02-14T06:57:01;103607.41;;;4.81;100.00
8398;BME280;4236;54.504;9.588;2023-02-14T06:59:29;103602.13;;;4.81;100.00
8398;BME280;4236;54.504;9.588;2023-02-14T07:01:58;103602.03;;;4.82;100.00
8398;BME280;4236;54.504;9.588;2023-02-14T07:04:25;103599.47;;;4.81;100.00
8398;BME280;4236;54.504;9.588;2023-02-14T07:06:53;103597.69;;;4.81;100.00
8398;BME280;4236;54.504;9.588;2023-02-14T07:09:21;103592.41;;;4.81;100.00
8398;BME280;4236;54.504;9.588;2023-02-14T07:11:49;103588.72;;;4.84;100.00
8398;BME280;4236;54.504;9.588;2023-02-14T07:14:17;103593.75;;;4.88;100.00
8398;BME280;4236;54.504;9.588;2023-02-14T07:16:44;103592.66;;;4.92;100.00
8398;BME280;4236;54.504;9.588;2023-02-14T07:19:13;103589.88;;;4.94;100.00
8398;BME280;4236;54.504;9.588;2023-02-14T07:21:41;103584.41;;;4.97;100.00
8398;BME280;4236;54.504;9.588;2023-02-14T07:24:09;103595.09;;;4.95;100.00
8398;BME280;4236;54.504;9.588;2023-02-14T07:26:37;103593.03;;;5.00;100.00
8398;BME280;4236;54.504;9.588;2023-02-14T07:29:04;103598.13;;;5.03;100.00
8398;BME280;4236;54.504;9.588;2023-02-14T07:31:32;103596.25;;;5.06;100.00
8398;BME280;4236;54.504;9.588;2023-02-14T07:34:00;103595.97;;;5.10;100.00
8398;BME280;4236;54.504;9.588;2023-02-14T07:36:29;103589.72;;;5.11;100.00
8398;BME280;4236;54.504;9.588;2023-02-14T07:38:57;103593.16;;;5.13;100.00
8398;BME280;4236;54.504;9.588;2023-02-14T07:41:24;103588.78;;;5.12;100.00
8398;BME280;4236;54.504;9.588;2023-02-14T07:43:52;103586.81;;;5.16;100.00
8398;BME280;4236;54.504;9.588;2023-02-14T07:46:20;103585.28;;;5.12;100.00
8398;BME280;4236;54.504;9.588;2023-02-14T07:48:48;103581.59;;;5.14;100.00
8398;BME280;4236;54.504;9.588;2023-02-14T07:51:17;103588.72;;;5.14;100.00
8398;BME280;4236;54.504;9.588;2023-02-14T07:53:46;103586.63;;;5.19;100.00
8398;BME280;4236;54.504;9.588;2023-02-14T07:56:14;103592.59;;;5.22;100.00
8398;BME280;4236;54.504;9.588;2023-02-14T07:58:41;103593.53;;;5.21;100.00
8398;BME280;4236;54.504;9.588;2023-02-14T08:01:09;103596.84;;;5.25;100.00
8398;BME280;4236;54.504;9.588;2023-02-14T08:03:37;103598.16;;;5.32;100.00
8398;BME280;4236;54.504;9.588;2023-02-14T08:06:05;103606.78;;;5.35;100.00
8398;BME280;4236;54.504;9.588;2023-02-14T08:08:32;103599.50;;;5.39;100.00
8398;BME280;4236;54.504;9.588;2023-02-14T08:11:01;103601.03;;;5.43;100.00
8398;BME280;4236;54.504;9.588;2023-02-14T08:13:29;103603.38;;;5.47;100.00
8398;BME280;4236;54.504;9.588;2023-02-14T08:15:56;103604.97;;;5.50;100.00
8398;BME280;4236;54.504;9.588;2023-02-14T08:18:36;103603.31;;;5.49;100.00
8398;BME280;4236;54.504;9.588;2023-02-14T08:21:06;103610.28;;;5.50;100.00
8398;BME280;4236;54.504;9.588;2023-02-14T08:23:34;103608.22;;;5.55;100.00
8398;BME280;4236;54.504;9.588;2023-02-14T08:26:03;103613.69;;;5.52;100.00
8398;BME280;4236;54.504;9.588;2023-02-14T08:28:31;103603.50;;;5.46;100.00
8398;BME280;4236;54.504;9.588;2023-02-14T08:31:00;103603.88;;;5.54;100.00
8398;BME280;4236;54.504;9.588;2023-02-14T08:33:29;103604.72;;;5.54;100.00
8398;BME280;4236;54.504;9.588;2023-02-14T08:35:56;103604.53;;;5.57;100.00
8398;BME280;4236;54.504;9.588;2023-02-14T08:38:24;103601.78;;;5.59;100.00
8398;BME280;4236;54.504;9.588;2023-02-14T08:40:51;103605.84;;;5.65;100.00
8398;BME280;4236;54.504;9.588;2023-02-14T08:43:20;103607.34;;;5.69;100.00
8398;BME280;4236;54.504;9.588;2023-02-14T08:45:51;103602.72;;;5.72;100.00
8398;BME280;4236;54.504;9.588;2023-02-14T08:48:19;103611.22;;;5.77;100.00
8398;BME280;4236;54.504;9.588;2023-02-14T08:50:48;103605.38;;;5.86;100.00
8398;BME280;4236;54.504;9.588;2023-02-14T08:53:16;103602.06;;;5.97;100.00
8398;BME280;4236;54.504;9.588;2023-02-14T08:55:44;103601.56;;;6.04;100.00
8398;BME280;4236;54.504;9.588;2023-02-14T08:58:11;103596.81;;;6.09;100.00
8398;BME280;4236;54.504;9.588;2023-02-14T09:00:41;103603.63;;;6.13;100.00
8398;BME280;4236;54.504;9.588;2023-02-14T09:03:08;103600.25;;;6.11;100.00
8398;BME280;4236;54.504;9.588;2023-02-14T09:05:37;103602.59;;;6.16;100.00
8398;BME280;4236;54.504;9.588;2023-02-14T09:08:04;103603.50;;;6.29;100.00
8398;BME280;4236;54.504;9.588;2023-02-14T09:10:33;103599.41;;;6.38;100.00
8398;BME280;4236;54.504;9.588;2023-02-14T09:13:00;103592.78;;;6.45;100.00
8398;BME280;4236;54.504;9.588;2023-02-14T09:15:28;103597.66;;;6.51;100.00
8398;BME280;4236;54.504;9.588;2023-02-14T09:17:57;103593.84;;;6.55;100.00
8398;BME280;4236;54.504;9.588;2023-02-14T09:20:25;103595.34;;;6.59;100.00
8398;BME280;4236;54.504;9.588;2023-02-14T09:22:54;103600.25;;;6.65;100.00
8398;BME280;4236;54.504;9.588;2023-02-14T09:25:22;103596.88;;;6.76;100.00
8398;BME280;4236;54.504;9.588;2023-02-14T09:27:49;103598.66;;;6.75;100.00
8398;BME280;4236;54.504;9.588;2023-02-14T09:30:17;103595.59;;;6.81;100.00
8398;BME280;4236;54.504;9.588;2023-02-14T09:32:45;103598.69;;;6.88;100.00
8398;BME280;4236;54.504;9.588;2023-02-14T09:35:14;103596.63;;;6.93;100.00
8398;BME280;4236;54.504;9.588;2023-02-14T09:37:42;103586.50;;;6.85;100.00
8398;BME280;4236;54.504;9.588;2023-02-14T09:40:27;103584.59;;;6.75;100.00
8398;BME280;4236;54.504;9.588;2023-02-14T09:43:02;103586.22;;;6.90;100.00
8398;BME280;4236;54.504;9.588;2023-02-14T09:45:32;103584.38;;;6.90;100.00
8398;BME280;4236;54.504;9.588;2023-02-14T09:48:02;103578.16;;;7.04;100.00
8398;BME280;4236;54.504;9.588;2023-02-14T09:50:39;103580.81;;;7.16;100.00
8398;BME280;4236;54.504;9.588;2023-02-14T09:53:17;103568.38;;;7.17;100.00
8398;BME280;4236;54.504;9.588;2023-02-14T09:55:52;103572.84;;;7.29;100.00
8398;BME280;4236;54.504;9.588;2023-02-14T09:58:28;103567.22;;;7.34;100.00
8398;BME280;4236;54.504;9.588;2023-02-14T10:01:02;103568.25;;;7.44;100.00
8398;BME280;4236;54.504;9.588;2023-02-14T10:06:43;103560.84;;;7.61;100.00
8398;BME280;4236;54.504;9.588;2023-02-14T10:09:21;103563.88;;;7.68;100.00
8398;BME280;4236;54.504;9.588;2023-02-14T10:11:52;103561.63;;;7.74;100.00
8398;BME280;4236;54.504;9.588;2023-02-14T10:14:23;103563.53;;;7.85;100.00
8398;BME280;4236;54.504;9.588;2023-02-14T10:16:54;103560.53;;;7.90;100.00
8398;BME280;4236;54.504;9.588;2023-02-14T10:19:26;103560.72;;;7.99;100.00
8398;BME280;4236;54.504;9.588;2023-02-14T10:22:00;103556.31;;;7.87;100.00
8398;BME280;4236;54.504;9.588;2023-02-14T10:24:34;103555.25;;;7.77;100.00
8398;BME280;4236;54.504;9.588;2023-02-14T10:27:10;103559.25;;;7.95;100.00
8398;BME280;4236;54.504;9.588;2023-02-14T10:29:40;103558.25;;;8.09;100.00
8398;BME280;4236;54.504;9.588;2023-02-14T10:32:12;103555.16;;;8.15;100.00
8398;BME280;4236;54.504;9.588;2023-02-14T10:34:43;103558.38;;;8.31;100.00
8398;BME280;4236;54.504;9.588;2023-02-14T10:37:33;103552.53;;;8.39;100.00
8398;BME280;4236;54.504;9.588;2023-02-14T10:43:16;103549.63;;;8.42;100.00
8398;BME280;4236;54.504;9.588;2023-02-14T10:45:54;103550.63;;;8.52;100.00
8398;BME280;4236;54.504;9.588;2023-02-14T10:48:30;103546.56;;;8.59;100.00
8398;BME280;4236;54.504;9.588;2023-02-14T10:51:03;103541.50;;;8.67;100.00
8398;BME280;4236;54.504;9.588;2023-02-14T10:53:37;103540.69;;;8.77;100.00
8398;BME280;4236;54.504;9.588;2023-02-14T10:56:11;103536.09;;;8.79;100.00
8398;BME280;4236;54.504;9.588;2023-02-14T10:58:44;103544.94;;;8.80;100.00
8398;BME280;4236;54.504;9.588;2023-02-14T11:01:15;103539.72;;;8.78;100.00
8398;BME280;4236;54.504;9.588;2023-02-14T11:03:52;103538.91;;;8.89;100.00
8398;BME280;4236;54.504;9.588;2023-02-14T11:06:20;103538.91;;;9.00;100.00
8398;BME280;4236;54.504;9.588;2023-02-14T11:08:49;103543.19;;;9.14;100.00
8398;BME280;4236;54.504;9.588;2023-02-14T11:11:20;103544.53;;;9.19;100.00
8398;BME280;4236;54.504;9.588;2023-02-14T11:13:51;103535.53;;;9.20;100.00
8398;BME280;4236;54.504;9.588;2023-02-14T11:16:28;103536.16;;;9.24;100.00
8398;BME280;4236;54.504;9.588;2023-02-14T11:19:08;103539.31;;;9.18;100.00
8398;BME280;4236;54.504;9.588;2023-02-14T11:21:36;103533.50;;;9.13;100.00
8398;BME280;4236;54.504;9.588;2023-02-14T11:24:17;103530.84;;;9.13;100.00
8398;BME280;4236;54.504;9.588;2023-02-14T11:26:46;103530.13;;;9.22;100.00
8398;BME280;4236;54.504;9.588;2023-02-14T11:29:22;103528.78;;;9.16;100.00
8398;BME280;4236;54.504;9.588;2023-02-14T11:31:51;103517.28;;;9.27;100.00
8398;BME280;4236;54.504;9.588;2023-02-14T11:34:27;103521.50;;;9.29;100.00
8398;BME280;4236;54.504;9.588;2023-02-14T11:36:57;103511.94;;;9.38;100.00
8398;BME280;4236;54.504;9.588;2023-02-14T11:39:29;103502.25;;;9.48;100.00
8398;BME280;4236;54.504;9.588;2023-02-14T11:41:59;103494.88;;;9.52;100.00
8398;BME280;4236;54.504;9.588;2023-02-14T11:44:31;103492.81;;;9.55;100.00
8398;BME280;4236;54.504;9.588;2023-02-14T11:47:15;103493.75;;;9.65;100.00
8398;BME280;4236;54.504;9.588;2023-02-14T11:49:53;103491.59;;;9.70;100.00
8398;BME280;4236;54.504;9.588;2023-02-14T11:52:22;103488.19;;;9.79;100.00
8398;BME280;4236;54.504;9.588;2023-02-14T11:54:53;103486.84;;;9.85;100.00
8398;BME280;4236;54.504;9.588;2023-02-14T11:57:23;103485.22;;;9.93;100.00
8398;BME280;4236;54.504;9.588;2023-02-14T11:59:54;103481.97;;;9.90;100.00
8398;BME280;4236;54.504;9.588;2023-02-14T12:02:26;103476.97;;;9.96;100.00
8398;BME280;4236;54.504;9.588;2023-02-14T12:04:57;103476.38;;;9.93;100.00
8398;BME280;4236;54.504;9.588;2023-02-14T12:07:29;103466.63;;;9.82;100.00
8398;BME280;4236;54.504;9.588;2023-02-14T12:10:21;103478.78;;;9.96;100.00
8398;BME280;4236;54.504;9.588;2023-02-14T12:12:55;103472.25;;;10.00;100.00
8398;BME280;4236;54.504;9.588;2023-02-14T12:15:29;103467.19;;;9.86;100.00
8398;BME280;4236;54.504;9.588;2023-02-14T12:20:58;103468.84;;;9.55;100.00
8398;BME280;4236;54.504;9.588;2023-02-14T12:23:35;103454.53;;;9.67;100.00
8398;BME280;4236;54.504;9.588;2023-02-14T12:26:13;103449.81;;;9.60;100.00
8398;BME280;4236;54.504;9.588;2023-02-14T12:28:48;103441.34;;;9.55;100.00
8398;BME280;4236;54.504;9.588;2023-02-14T12:31:18;103447.53;;;9.55;100.00
8398;BME280;4236;54.504;9.588;2023-02-14T12:33:46;103439.88;;;9.62;100.00
8398;BME280;4236;54.504;9.588;2023-02-14T12:36:25;103439.38;;;9.68;100.00
8398;BME280;4236;54.504;9.588;2023-02-14T12:39:02;103433.97;;;9.58;100.00
8398;BME280;4236;54.504;9.588;2023-02-14T12:41:41;103432.78;;;9.29;100.00
8398;BME280;4236;54.504;9.588;2023-02-14T12:44:20;103431.06;;;9.50;100.00
8398;BME280;4236;54.504;9.588;2023-02-14T12:47:11;103430.69;;;9.55;100.00
8398;BME280;4236;54.504;9.588;2023-02-14T12:52:54;103414.94;;;9.63;100.00
8398;BME280;4236;54.504;9.588;2023-02-14T12:55:35;103409.34;;;9.66;100.00
8398;BME280;4236;54.504;9.588;2023-02-14T12:58:21;103406.72;;;9.55;100.00
8398;BME280;4236;54.504;9.588;2023-02-14T13:01:03;103409.88;;;9.49;100.00
8398;BME280;4236;54.504;9.588;2023-02-14T13:03:51;103398.06;;;9.30;100.00
8398;BME280;4236;54.504;9.588;2023-02-14T13:06:27;103390.09;;;9.19;100.00
8398;BME280;4236;54.504;9.588;2023-02-14T13:09:09;103397.25;;;8.85;100.00
8398;BME280;4236;54.504;9.588;2023-02-14T13:11:50;103401.97;;;8.82;100.00
8398;BME280;4236;54.504;9.588;2023-02-14T13:14:37;103393.72;;;8.96;100.00
8398;BME280;4236;54.504;9.588;2023-02-14T13:17:17;103386.38;;;8.77;100.00
8398;BME280;4236;54.504;9.588;2023-02-14T13:19:53;103388.66;;;8.71;100.00
8398;BME280;4236;54.504;9.588;2023-02-14T13:22:27;103379.47;;;8.64;100.00
8398;BME280;4236;54.504;9.588;2023-02-14T13:24:58;103374.28;;;8.62;100.00
8398;BME280;4236;54.504;9.588;2023-02-14T13:27:31;103369.91;;;8.50;100.00
8398;BME280;4236;54.504;9.588;2023-02-14T13:30:03;103362.53;;;8.54;100.00
8398;BME280;4236;54.504;9.588;2023-02-14T13:32:35;103363.88;;;8.59;100.00
8398;BME280;4236;54.504;9.588;2023-02-14T13:35:06;103353.56;;;8.44;100.00
8398;BME280;4236;54.504;9.588;2023-02-14T13:37:35;103357.09;;;8.33;100.00
8398;BME280;4236;54.504;9.588;2023-02-14T13:40:06;103361.53;;;8.32;100.00
8398;BME280;4236;54.504;9.588;2023-02-14T13:42:51;103358.47;;;8.26;100.00
8398;BME280;4236;54.504;9.588;2023-02-14T13:45:54;103354.06;;;8.38;100.00